Aviation Digital Data Service (ADDS)

Output produced by METARs form (1203 UTC 17 December 2018)
found at http://aviationweather.gov/metar/data/
 
KHDC 171138Z 1712/1812 VRB04KT P6SM BKN250